Weather at Tampa International Airport

Public forecast

Using degrees Fahrenheit for public forecast. Weather courtesy of forecast.io.

Current aviation weather report (METAR) for Tampa International Airport

Report is more than 6 hours old.

2022/11/14 14:53 (retrieved 2 years ago)

KTPA 141453Z 05006KT 10SM FEW028 BKN035 21/14 A3012 RMK AO2 SLP198 T02110144 51013

Aviation forecast (TAF) for Tampa International Airport

Forecast is more than 12 hours old.

2023/02/22 18:33 (retrieved 1 year ago)

TAF KTPA 221731Z 2218/2324 20012KT P6SM FEW030 FM230100 18005KT P6SM FEW080 SCT250 FM230900 17004KT 6SM BR SCT030 SCT200 FM231400 17006KT P6SM SCT250 FM231800 20009KT P6SM FEW250